Time;durP1;ratioP1;P1;durP2;ratioP2;P2;SDS_P1;SDS_P2;PMS_P1;PMS_P2;Temp;Humidity;BMP_temperature;BMP_pressure;BME280_temperature;BME280_humidity;BME280_pressure;Samples;Min_cycle;Max_cycle;Signal;HPM_P1;HPM_P2
2024/01/07 00:01:48;;;;;;;;;;;;;;;0.16;100.00;100300.97;5068213;28;20027;-75
2024/01/07 00:04:14;;;;;;;;;;;;;;;0.18;100.00;100263.16;5078596;28;20003;-75
2024/01/07 00:06:39;;;;;;;;;;;;;;;0.25;100.00;100241.72;5060177;28;19916;-75
2024/01/07 00:09:04;;;;;;;;;;;;;;;0.14;100.00;100113.84;5057571;28;19977;-75
2024/01/07 00:11:29;;;;;;;;;;;;;;;0.22;100.00;100111.53;5077310;28;19920;-75
2024/01/07 00:13:55;;;;;;;;;;;;;;;0.25;100.00;100126.22;5047393;28;19913;-75
2024/01/07 00:16:20;;;;;;;;;;;;;;;0.07;100.00;100010.25;5067939;28;19962;-75
2024/01/07 00:18:45;;;;;;;;;;;;;;;0.02;100.00;100025.50;5085888;28;19931;-76
2024/01/07 00:21:10;;;;;;;;;;;;;;;0.20;100.00;100100.28;5051375;28;19923;-75
2024/01/07 00:23:36;;;;;;;;;;;;;;;0.20;100.00;100102.91;5060058;28;19912;-75
2024/01/07 00:26:03;;;;;;;;;;;;;;;0.12;100.00;100066.72;5064181;28;20603;-75
2024/01/07 00:28:28;;;;;;;;;;;;;;;0.13;100.00;100043.94;5068033;28;19915;-76
2024/01/07 00:30:53;;;;;;;;;;;;;;;0.06;100.00;100046.16;5047707;28;19920;-75
2024/01/07 00:33:19;;;;;;;;;;;;;;;0.13;100.00;100083.31;5047387;28;19908;-75
2024/01/07 00:35:44;;;;;;;;;;;;;;;0.06;100.00;100074.22;5071566;28;19994;-75
2024/01/07 00:38:09;;;;;;;;;;;;;;;0.26;100.00;100183.00;5085841;28;19911;-75
2024/01/07 00:40:34;;;;;;;;;;;;;;;0.26;100.00;100155.00;5054952;28;19942;-75
2024/01/07 00:43:00;;;;;;;;;;;;;;;0.29;100.00;100170.50;5059933;28;19916;-75
2024/01/07 00:45:25;;;;;;;;;;;;;;;0.34;100.00;100171.00;5075318;28;19912;-75
2024/01/07 00:47:50;;;;;;;;;;;;;;;-0.02;100.00;100030.16;5066904;28;19912;-75
2024/01/07 00:50:16;;;;;;;;;;;;;;;0.26;100.00;100173.38;5054616;28;19951;-75
2024/01/07 00:52:43;;;;;;;;;;;;;;;0.12;100.00;100119.22;5067727;28;20007;-75
2024/01/07 00:55:08;;;;;;;;;;;;;;;0.16;100.00;100080.44;5071020;28;19916;-75
2024/01/07 00:57:34;;;;;;;;;;;;;;;0.06;100.00;100005.97;5063472;28;20388;-75
2024/01/07 01:00:00;;;;;;;;;;;;;;;0.19;100.00;100075.81;5061940;28;19976;-76
2024/01/07 01:02:25;;;;;;;;;;;;;;;0.10;100.00;100075.66;5068941;28;19920;-75
2024/01/07 01:04:50;;;;;;;;;;;;;;;-0.01;100.00;100032.66;5079868;28;20460;-75
2024/01/07 01:07:16;;;;;;;;;;;;;;;0.08;100.00;100114.31;5055562;28;20359;-75
2024/01/07 01:09:41;;;;;;;;;;;;;;;0.03;100.00;100059.53;5065129;28;19912;-75
2024/01/07 01:12:06;;;;;;;;;;;;;;;0.09;100.00;100060.84;5070906;28;20808;-75
2024/01/07 01:14:31;;;;;;;;;;;;;;;0.22;100.00;100153.53;5070604;28;20124;-75
2024/01/07 01:16:57;;;;;;;;;;;;;;;-0.04;100.00;100053.88;5070745;28;19912;-75
2024/01/07 01:19:23;;;;;;;;;;;;;;;0.26;100.00;100246.88;5070840;28;20369;-75
2024/01/07 01:21:49;;;;;;;;;;;;;;;0.32;100.00;100272.69;5062827;28;20482;-75
2024/01/07 01:24:15;;;;;;;;;;;;;;;0.30;100.00;100308.72;5050148;28;19920;-75
2024/01/07 01:26:40;;;;;;;;;;;;;;;0.10;100.00;100275.16;5062814;28;19977;-75
2024/01/07 01:29:05;;;;;;;;;;;;;;;-0.02;100.00;100209.44;5046715;28;19919;-76
2024/01/07 01:31:30;;;;;;;;;;;;;;;0.13;100.00;100280.19;5068896;28;19965;-75
2024/01/07 01:33:56;;;;;;;;;;;;;;;0.00;100.00;100149.00;5061201;28;20010;-75
2024/01/07 01:36:21;;;;;;;;;;;;;;;0.08;100.00;100193.06;5059704;28;19920;-75
2024/01/07 01:38:48;;;;;;;;;;;;;;;-0.05;100.00;100102.06;5084694;28;20635;-75
2024/01/07 01:41:13;;;;;;;;;;;;;;;-0.09;100.00;100034.19;5062550;28;19912;-76
2024/01/07 01:43:38;;;;;;;;;;;;;;;0.08;100.00;100077.56;5052906;28;19912;-75
2024/01/07 01:46:04;;;;;;;;;;;;;;;-0.01;100.00;99927.66;5069305;28;19919;-76
2024/01/07 01:48:29;;;;;;;;;;;;;;;-0.07;100.00;99887.94;5070222;28;19939;-75
2024/01/07 01:50:57;;;;;;;;;;;;;;;0.04;100.00;99998.19;5047386;28;19912;-75
2024/01/07 01:53:23;;;;;;;;;;;;;;;0.02;100.00;100007.13;5065829;28;20434;-76
2024/01/07 01:55:48;;;;;;;;;;;;;;;-0.09;100.00;99930.03;5050039;28;19908;-75
2024/01/07 01:58:15;;;;;;;;;;;;;;;0.08;100.00;100043.44;5066299;28;19965;-76
2024/01/07 02:00:40;;;;;;;;;;;;;;;-0.03;100.00;100029.28;5069777;28;19912;-76
2024/01/07 02:03:05;;;;;;;;;;;;;;;0.10;100.00;100125.53;5069784;28;20546;-75
2024/01/07 02:05:31;;;;;;;;;;;;;;;0.24;100.00;100175.25;5083531;28;20006;-75
2024/01/07 02:07:56;;;;;;;;;;;;;;;0.36;100.00;100247.91;5053139;28;19912;-76
2024/01/07 02:10:22;;;;;;;;;;;;;;;0.33;100.00;100256.00;5053094;28;19916;-76
2024/01/07 02:12:48;;;;;;;;;;;;;;;0.28;100.00;100292.25;5069699;28;19919;-75
2024/01/07 02:15:13;;;;;;;;;;;;;;;0.29;100.00;100299.19;5075822;28;19924;-75
2024/01/07 02:17:38;;;;;;;;;;;;;;;0.24;100.00;100319.66;5060901;28;19918;-75
2024/01/07 02:20:04;;;;;;;;;;;;;;;0.27;100.00;100356.22;5065681;28;20311;-75
2024/01/07 02:22:29;;;;;;;;;;;;;;;0.29;100.00;100422.59;5051328;28;19916;-75
2024/01/07 02:24:54;;;;;;;;;;;;;;;0.29;100.00;100469.88;5046460;28;19932;-76
2024/01/07 02:27:20;;;;;;;;;;;;;;;0.23;100.00;100459.75;5087370;28;19999;-75
2024/01/07 02:29:45;;;;;;;;;;;;;;;0.24;100.00;100511.34;5069524;28;19946;-76
2024/01/07 02:32:11;;;;;;;;;;;;;;;0.20;100.00;100536.94;5068887;28;20389;-76
2024/01/07 02:34:36;;;;;;;;;;;;;;;0.09;100.00;100451.97;5068677;28;19912;-76
2024/01/07 02:37:01;;;;;;;;;;;;;;;0.08;100.00;100494.94;5052561;28;19912;-75
2024/01/07 02:39:26;;;;;;;;;;;;;;;0.16;100.00;100503.13;5068939;28;20897;-76
2024/01/07 02:41:52;;;;;;;;;;;;;;;-0.02;100.00;100426.47;5069069;28;19927;-75
2024/01/07 02:44:17;;;;;;;;;;;;;;;-0.01;100.00;100431.59;5068589;28;19908;-75
2024/01/07 02:46:42;;;;;;;;;;;;;;;0.08;100.00;100492.31;5068860;28;19923;-75
2024/01/07 02:49:08;;;;;;;;;;;;;;;0.09;100.00;100479.06;5069039;28;19918;-76
2024/01/07 02:51:33;;;;;;;;;;;;;;;-0.04;100.00;100465.09;5043567;28;20309;-75
2024/01/07 02:53:58;;;;;;;;;;;;;;;-0.11;100.00;100456.78;5059793;28;20420;-75
2024/01/07 02:56:24;;;;;;;;;;;;;;;-0.08;100.00;100459.19;5068662;28;19923;-76
2024/01/07 02:58:49;;;;;;;;;;;;;;;-0.07;100.00;100455.63;5069236;28;20287;-76
2024/01/07 03:01:14;;;;;;;;;;;;;;;-0.15;100.00;100451.81;5087430;28;19955;-75
2024/01/07 03:03:39;;;;;;;;;;;;;;;-0.30;100.00;100424.81;5068378;28;19919;-75
2024/01/07 03:06:05;;;;;;;;;;;;;;;-0.16;100.00;100506.09;5087236;28;19922;-75
2024/01/07 03:08:30;;;;;;;;;;;;;;;-0.26;100.00;100490.09;5087075;28;19923;-75
2024/01/07 03:10:55;;;;;;;;;;;;;;;-0.28;100.00;100628.41;5069017;28;20704;-75
2024/01/07 03:13:21;;;;;;;;;;;;;;;-0.19;100.00;100765.22;5051372;28;19915;-75
2024/01/07 03:15:46;;;;;;;;;;;;;;;-0.22;100.00;100810.84;5066618;28;19918;-76
2024/01/07 03:18:11;;;;;;;;;;;;;;;-0.21;100.00;100899.16;5082415;28;20418;-75
2024/01/07 03:20:36;;;;;;;;;;;;;;;-0.34;100.00;100916.53;5068856;28;20002;-75
2024/01/07 03:23:02;;;;;;;;;;;;;;;-0.29;100.00;100993.19;5068609;28;19923;-76
2024/01/07 03:25:27;;;;;;;;;;;;;;;-0.36;100.00;100966.47;5059286;28;20298;-75
2024/01/07 03:27:52;;;;;;;;;;;;;;;-0.29;100.00;101027.31;5051040;28;19912;-75
2024/01/07 03:30:17;;;;;;;;;;;;;;;-0.30;100.00;101070.22;5060594;28;19951;-75
2024/01/07 03:32:43;;;;;;;;;;;;;;;-0.36;100.00;101102.03;5055528;28;19912;-75
2024/01/07 03:35:11;;;;;;;;;;;;;;;-0.27;100.00;101196.00;5086233;28;19995;-75
2024/01/07 03:37:36;;;;;;;;;;;;;;;-0.22;100.00;101230.72;5051336;28;20813;-75
2024/01/07 03:40:01;;;;;;;;;;;;;;;-0.24;100.00;101256.19;5086733;28;19916;-75
2024/01/07 03:42:26;;;;;;;;;;;;;;;-0.23;100.00;101277.13;5086417;28;19923;-75
2024/01/07 03:44:52;;;;;;;;;;;;;;;-0.23;100.00;101302.53;5086067;28;19912;-75
2024/01/07 03:47:17;;;;;;;;;;;;;;;-0.61;100.00;101265.97;5068315;28;19917;-75
2024/01/07 03:49:42;;;;;;;;;;;;;;;-0.43;100.00;101397.97;5068307;28;19935;-76
2024/01/07 03:52:08;;;;;;;;;;;;;;;-0.34;100.00;101442.13;5086336;28;20072;-75
2024/01/07 03:54:33;;;;;;;;;;;;;;;-0.41;100.00;101448.59;5067858;28;19912;-76
2024/01/07 03:56:59;;;;;;;;;;;;;;;-0.39;100.00;101486.13;5051392;28;19912;-75
2024/01/07 03:59:25;;;;;;;;;;;;;;;-0.38;100.00;101493.03;5068213;28;19920;-75
2024/01/07 04:01:50;;;;;;;;;;;;;;;-0.43;100.00;101502.91;5047517;28;20418;-76
2024/01/07 04:04:16;;;;;;;;;;;;;;;-0.50;100.00;101499.72;5063981;28;19916;-75
2024/01/07 04:06:41;;;;;;;;;;;;;;;-0.49;100.00;101518.97;5068037;28;20565;-75
2024/01/07 04:09:08;;;;;;;;;;;;;;;-0.52;100.00;101532.22;5071493;28;20042;-75
2024/01/07 04:11:38;;;;;;;;;;;;;;;-0.51;100.00;101533.94;5092924;28;19957;-75
2024/01/07 04:14:03;;;;;;;;;;;;;;;-0.64;100.00;101503.00;5092513;28;19912;-75
2024/01/07 04:16:29;;;;;;;;;;;;;;;-0.55;100.00;101522.72;5067711;28;19912;-75
2024/01/07 04:18:54;;;;;;;;;;;;;;;-0.65;100.00;101510.97;5074538;28;19919;-75
2024/01/07 04:21:19;;;;;;;;;;;;;;;-0.70;100.00;101512.97;5057616;28;20392;-75
2024/01/07 04:23:44;;;;;;;;;;;;;;;-0.77;100.00;101495.78;5091927;28;20278;-75
2024/01/07 04:26:09;;;;;;;;;;;;;;;-0.78;100.00;101501.94;5074085;28;19912;-75
2024/01/07 04:28:35;;;;;;;;;;;;;;;-0.85;100.00;101494.34;5092234;28;19923;-75
2024/01/07 04:31:00;;;;;;;;;;;;;;;-0.70;100.00;101537.41;5074245;28;19919;-75
2024/01/07 04:33:25;;;;;;;;;;;;;;;-0.73;100.00;101513.06;5073588;28;19912;-76
2024/01/07 04:35:50;;;;;;;;;;;;;;;-0.98;100.00;101488.00;5074309;28;19912;-75
2024/01/07 04:38:16;;;;;;;;;;;;;;;-0.96;100.00;101480.03;5074446;28;20007;-74
2024/01/07 04:40:41;;;;;;;;;;;;;;;-1.01;100.00;101477.63;5057336;28;19969;-76
2024/01/07 04:43:06;;;;;;;;;;;;;;;-1.07;100.00;101476.16;5073912;28;20340;-75
2024/01/07 04:45:31;;;;;;;;;;;;;;;-1.13;100.00;101457.22;5073747;28;19915;-75
2024/01/07 04:47:57;;;;;;;;;;;;;;;-1.05;100.00;101476.09;5092301;28;19912;-75
2024/01/07 04:50:23;;;;;;;;;;;;;;;-1.02;100.00;101496.91;5073902;28;20302;-75
2024/01/07 04:52:48;;;;;;;;;;;;;;;-1.14;100.00;101481.75;5087271;28;19912;-75
2024/01/07 04:55:13;;;;;;;;;;;;;;;-1.04;100.00;101503.16;5069083;28;19911;-75
2024/01/07 04:57:38;;;;;;;;;;;;;;;-1.08;100.00;101465.72;5073854;28;20362;-75
2024/01/07 05:00:04;;;;;;;;;;;;;;;-1.16;100.00;101436.41;5083862;28;20007;-75
2024/01/07 05:02:29;;;;;;;;;;;;;;;-1.29;100.00;101400.31;5091807;28;20282;-75
2024/01/07 05:04:55;;;;;;;;;;;;;;;-1.48;100.00;101378.47;5091783;28;19916;-75
2024/01/07 05:07:20;;;;;;;;;;;;;;;-1.33;100.00;101403.97;5073818;28;20018;-76
2024/01/07 05:09:45;;;;;;;;;;;;;;;-1.47;100.00;101367.09;5073899;28;19912;-75
2024/01/07 05:12:11;;;;;;;;;;;;;;;-1.42;100.00;101383.44;5092005;28;19922;-75
2024/01/07 05:14:54;;;;;;;;;;;;;;;-1.53;100.00;101388.31;5068932;28;19919;-75
2024/01/07 05:17:38;;;;;;;;;;;;;;;-1.61;100.00;101372.94;5091964;28;20468;-77
2024/01/07 05:20:22;;;;;;;;;;;;;;;-1.60;100.00;101397.38;5090704;28;19918;-76
2024/01/07 05:23:06;;;;;;;;;;;;;;;-1.69;100.00;101359.34;5082956;28;20068;-77
2024/01/07 05:25:50;;;;;;;;;;;;;;;-1.63;100.00;101407.97;5089060;28;19934;-77
2024/01/07 05:28:36;;;;;;;;;;;;;;;-1.56;100.00;101422.50;5088587;28;19918;-77
2024/01/07 05:31:20;;;;;;;;;;;;;;;-1.54;100.00;101399.72;5073094;28;20398;-77
2024/01/07 05:34:04;;;;;;;;;;;;;;;-1.78;100.00;101329.22;5083939;28;19919;-77
2024/01/07 05:36:47;;;;;;;;;;;;;;;-1.95;100.00;101360.50;5075112;28;19934;-77
2024/01/07 05:39:32;;;;;;;;;;;;;;;-1.83;100.00;101404.44;5089975;28;19923;-76
2024/01/07 05:42:16;;;;;;;;;;;;;;;-1.80;100.00;101440.16;5090443;28;19930;-77
2024/01/07 05:44:59;;;;;;;;;;;;;;;-1.81;100.00;101438.44;5074328;28;20363;-76
2024/01/07 05:47:43;;;;;;;;;;;;;;;-1.92;100.00;101426.66;5070145;28;20349;-78
2024/01/07 05:50:27;;;;;;;;;;;;;;;-1.93;100.00;101445.88;5074971;28;19958;-77
2024/01/07 05:53:11;;;;;;;;;;;;;;;-1.99;100.00;101432.19;5074610;28;19923;-76
2024/01/07 05:55:55;;;;;;;;;;;;;;;-1.96;100.00;101469.56;5079848;28;19939;-78
2024/01/07 05:58:39;;;;;;;;;;;;;;;-2.02;100.00;101445.44;5071734;28;20025;-76
2024/01/07 06:01:23;;;;;;;;;;;;;;;-2.03;100.00;101483.84;5084928;28;20015;-74
2024/01/07 06:04:07;;;;;;;;;;;;;;;-2.00;100.00;101506.41;5088129;28;20029;-75
2024/01/07 06:06:51;;;;;;;;;;;;;;;-2.15;100.00;101482.56;5089339;28;20406;-77
2024/01/07 06:09:35;;;;;;;;;;;;;;;-2.05;100.00;101479.56;5074071;28;20405;-77
2024/01/07 06:12:01;;;;;;;;;;;;;;;-2.09;100.00;101446.59;5071446;28;19923;-77
2024/01/07 06:14:26;;;;;;;;;;;;;;;-2.16;100.00;101419.84;5071107;28;19918;-76
2024/01/07 06:16:52;;;;;;;;;;;;;;;-2.16;100.00;101409.38;5071149;28;19920;-76
2024/01/07 06:19:17;;;;;;;;;;;;;;;-2.15;100.00;101393.63;5054486;28;19950;-77
2024/01/07 06:21:43;;;;;;;;;;;;;;;-2.15;100.00;101377.91;5087728;28;19923;-76
2024/01/07 06:24:08;;;;;;;;;;;;;;;-2.21;100.00;101346.78;5081658;28;19943;-75
2024/01/07 06:26:34;;;;;;;;;;;;;;;-2.09;100.00;101365.47;5067655;28;19919;-75
2024/01/07 06:28:59;;;;;;;;;;;;;;;-2.08;100.00;101331.41;5070355;28;19912;-78
2024/01/07 06:31:25;;;;;;;;;;;;;;;-2.17;100.00;101285.56;5070296;28;19961;-77
2024/01/07 06:33:50;;;;;;;;;;;;;;;-2.18;100.00;101291.72;5061898;28;19918;-78
2024/01/07 06:36:15;;;;;;;;;;;;;;;-2.18;100.00;101307.44;5054707;28;19911;-78
2024/01/07 06:38:40;;;;;;;;;;;;;;;-2.15;100.00;101320.38;5070770;28;19915;-74
2024/01/07 06:41:06;;;;;;;;;;;;;;;-2.17;100.00;101310.88;5069238;28;20015;-74
2024/01/07 06:43:32;;;;;;;;;;;;;;;-2.18;100.00;101314.41;5052661;28;19912;-75
2024/01/07 06:45:57;;;;;;;;;;;;;;;-2.18;100.00;101344.06;5062351;28;19958;-76
2024/01/07 06:48:22;;;;;;;;;;;;;;;-2.19;100.00;101349.34;5069177;28;20487;-75
2024/01/07 06:50:48;;;;;;;;;;;;;;;-2.24;100.00;101373.06;5069234;28;19986;-75
2024/01/07 06:53:13;;;;;;;;;;;;;;;-2.22;100.00;101396.56;5069043;28;19908;-75
2024/01/07 06:55:39;;;;;;;;;;;;;;;-2.30;100.00;101394.25;5063844;28;19912;-76
2024/01/07 06:58:04;;;;;;;;;;;;;;;-2.36;100.00;101408.44;5052973;28;20117;-75
2024/01/07 07:00:29;;;;;;;;;;;;;;;-2.30;100.00;101446.56;5069462;28;20597;-76
2024/01/07 07:02:55;;;;;;;;;;;;;;;-2.26;100.00;101474.31;5087485;28;19935;-76
2024/01/07 07:05:20;;;;;;;;;;;;;;;-2.36;100.00;101486.06;5069255;28;20266;-76
2024/01/07 07:07:45;;;;;;;;;;;;;;;-2.36;100.00;101502.59;5087329;28;19920;-75
2024/01/07 07:10:11;;;;;;;;;;;;;;;-2.42;100.00;101505.44;5069377;28;19919;-73
2024/01/07 07:12:36;;;;;;;;;;;;;;;-2.49;100.00;101513.59;5069028;28;19916;-74
2024/01/07 07:15:01;;;;;;;;;;;;;;;-2.43;100.00;101565.69;5068863;28;19966;-75
2024/01/07 07:17:26;;;;;;;;;;;;;;;-2.44;100.00;101580.50;5087305;28;19919;-74
2024/01/07 07:19:52;;;;;;;;;;;;;;;-2.47;100.00;101574.53;5069143;28;20389;-76
2024/01/07 07:22:17;;;;;;;;;;;;;;;-2.47;100.00;101590.22;5069015;28;19918;-76
2024/01/07 07:24:42;;;;;;;;;;;;;;;-2.45;100.00;101596.25;5051942;28;20029;-75
2024/01/07 07:27:08;;;;;;;;;;;;;;;-2.43;100.00;101612.75;5069404;28;19930;-76
2024/01/07 07:29:33;;;;;;;;;;;;;;;-2.48;100.00;101598.97;5070061;28;19912;-78
2024/01/07 07:31:58;;;;;;;;;;;;;;;-2.37;100.00;101638.66;5053043;28;19947;-78
2024/01/07 07:34:24;;;;;;;;;;;;;;;-2.45;100.00;101611.94;5053210;28;19912;-77
2024/01/07 07:36:49;;;;;;;;;;;;;;;-2.54;100.00;101594.84;5069657;28;19951;-77
2024/01/07 07:39:14;;;;;;;;;;;;;;;-2.45;100.00;101619.78;5053523;28;19961;-77
2024/01/07 07:41:40;;;;;;;;;;;;;;;-2.55;100.00;101614.06;5059619;28;19919;-76
2024/01/07 07:44:07;;;;;;;;;;;;;;;-2.52;100.00;101631.41;5047771;28;20007;-77
2024/01/07 07:46:32;;;;;;;;;;;;;;;-2.52;100.00;101645.31;5066372;28;19998;-77
2024/01/07 07:48:57;;;;;;;;;;;;;;;-2.48;100.00;101661.72;5069498;28;19908;-78
2024/01/07 07:51:22;;;;;;;;;;;;;;;-2.57;100.00;101642.88;5069773;28;19912;-78
2024/01/07 07:53:48;;;;;;;;;;;;;;;-2.49;100.00;101665.28;5069100;28;19915;-77
2024/01/07 07:56:13;;;;;;;;;;;;;;;-2.48;100.00;101652.16;5053075;28;19947;-77
2024/01/07 07:58:39;;;;;;;;;;;;;;;-2.49;100.00;101646.97;5061178;28;19919;-78
2024/01/07 08:01:04;;;;;;;;;;;;;;;-2.56;100.00;101634.09;5049510;28;19948;-77
2024/01/07 08:03:30;;;;;;;;;;;;;;;-2.50;100.00;101637.44;5052602;28;19916;-77
2024/01/07 08:05:55;;;;;;;;;;;;;;;-2.48;100.00;101635.59;5069567;28;19977;-77
2024/01/07 08:08:21;;;;;;;;;;;;;;;-2.52;100.00;101634.84;5069723;28;19919;-76
2024/01/07 08:10:46;;;;;;;;;;;;;;;-2.43;100.00;101644.13;5066956;28;19916;-75
2024/01/07 08:13:11;;;;;;;;;;;;;;;-2.43;100.00;101625.81;5073008;28;19919;-76
2024/01/07 08:15:37;;;;;;;;;;;;;;;-2.41;100.00;101639.66;5060270;28;19908;-77
2024/01/07 08:18:03;;;;;;;;;;;;;;;-2.39;100.00;101637.84;5061514;28;19912;-76
2024/01/07 08:20:29;;;;;;;;;;;;;;;-2.41;100.00;101618.75;5085764;28;19912;-75
2024/01/07 08:22:54;;;;;;;;;;;;;;;-2.40;100.00;101626.53;5047783;28;19952;-75
2024/01/07 08:25:19;;;;;;;;;;;;;;;-2.36;100.00;101640.38;5067803;28;19959;-76
2024/01/07 08:27:45;;;;;;;;;;;;;;;-2.40;100.00;101630.94;5051136;28;19912;-75
2024/01/07 08:30:12;;;;;;;;;;;;;;;-2.27;100.00;101681.00;5067761;28;20028;-75
2024/01/07 08:32:37;;;;;;;;;;;;;;;-2.41;100.00;101624.84;5067539;28;19916;-75
2024/01/07 08:35:02;;;;;;;;;;;;;;;-2.29;100.00;101664.53;5050707;28;19912;-75
2024/01/07 08:37:27;;;;;;;;;;;;;;;-2.10;100.00;101698.72;5051071;28;19912;-76
2024/01/07 08:39:54;;;;;;;;;;;;;;;-1.58;100.00;101786.56;5067253;28;20443;-75
2024/01/07 08:42:19;;;;;;;;;;;;;;;-0.55;100.00;101870.75;5067929;28;19939;-76
2024/01/07 08:44:44;;;;;;;;;;;;;;;0.08;100.00;101744.66;5067298;28;20367;-76
2024/01/07 08:47:09;;;;;;;;;;;;;;;0.73;100.00;101617.16;5067663;28;19919;-75
2024/01/07 08:49:35;;;;;;;;;;;;;;;1.47;100.00;101481.69;5066907;28;19977;-75
2024/01/07 08:52:01;;;;;;;;;;;;;;;1.82;100.00;101242.72;5067709;28;19942;-74
2024/01/07 08:54:26;;;;;;;;;;;;;;;2.43;100.00;101079.91;5067359;28;19918;-74
2024/01/07 08:56:51;;;;;;;;;;;;;;;3.08;100.00;100893.53;5051468;28;19916;-75
2024/01/07 08:59:16;;;;;;;;;;;;;;;3.31;100.00;100576.06;5075747;28;19912;-76
2024/01/07 09:01:42;;;;;;;;;;;;;;;3.50;100.00;100329.13;5070979;28;19971;-76
2024/01/07 09:04:07;;;;;;;;;;;;;;;3.84;100.00;100183.72;5054265;28;19908;-76
2024/01/07 09:06:32;;;;;;;;;;;;;;;4.01;100.00;99971.78;5051491;28;19913;-76
2024/01/07 09:08:58;;;;;;;;;;;;;;;4.39;100.00;99938.34;5089200;28;20397;-76
2024/01/07 09:11:23;;;;;;;;;;;;;;;4.95;100.00;99876.63;5089306;28;19908;-76
2024/01/07 09:13:50;;;;;;;;;;;;;;;5.19;100.00;99577.06;5088453;28;19912;-76
2024/01/07 09:16:15;;;;;;;;;;;;;;;5.50;100.00;99460.06;5051057;28;19917;-75
2024/01/07 09:18:40;;;;;;;;;;;;;;;5.35;100.00;99306.38;5087159;28;19916;-76
2024/01/07 09:21:06;;;;;;;;;;;;;;;4.85;100.00;99056.06;5051354;28;19920;-76
2024/01/07 09:23:33;;;;;;;;;;;;;;;5.04;100.00;99205.66;5085125;28;19922;-76
2024/01/07 09:25:58;;;;;;;;;;;;;;;4.75;99.50;99130.25;5069407;28;20011;-76
2024/01/07 09:28:23;;;;;;;;;;;;;;;5.03;98.50;99249.78;5071027;28;20454;-76
2024/01/07 09:30:49;;;;;;;;;;;;;;;4.25;95.39;98821.25;5088745;28;19911;-77
2024/01/07 09:33:15;;;;;;;;;;;;;;;4.79;95.33;99088.44;5070684;28;19911;-77
2024/01/07 09:35:40;;;;;;;;;;;;;;;5.30;94.21;99197.53;5051573;28;19912;-76
2024/01/07 09:38:05;;;;;;;;;;;;;;;4.95;92.01;98964.13;5070075;28;19998;-75
2024/01/07 09:40:31;;;;;;;;;;;;;;;4.91;89.97;98843.81;5053567;28;20363;-74
2024/01/07 09:42:56;;;;;;;;;;;;;;;5.27;90.13;99092.03;5052964;28;19949;-74
2024/01/07 09:45:23;;;;;;;;;;;;;;;5.01;87.64;98823.28;5053440;28;20367;-75
2024/01/07 09:47:49;;;;;;;;;;;;;;;5.39;87.72;98994.56;5053371;28;19911;-76
2024/01/07 09:50:14;;;;;;;;;;;;;;;5.72;85.92;98942.28;5050152;28;20301;-76
2024/01/07 09:52:42;;;;;;;;;;;;;;;5.60;84.86;98874.84;5069888;28;19935;-75
2024/01/07 09:55:09;;;;;;;;;;;;;;;5.70;84.03;98876.25;5087774;28;19918;-75
2024/01/07 09:57:34;;;;;;;;;;;;;;;5.25;83.72;98845.31;5069920;28;19912;-75
2024/01/07 10:00:00;;;;;;;;;;;;;;;5.19;82.45;98719.00;5069811;28;19934;-76
2024/01/07 10:02:25;;;;;;;;;;;;;;;4.84;81.74;98594.31;5049779;28;19967;-76
2024/01/07 10:04:50;;;;;;;;;;;;;;;4.55;81.10;98556.22;5048934;28;19982;-75
2024/01/07 10:07:17;;;;;;;;;;;;;;;3.90;81.36;98590.97;5066833;28;19916;-74
2024/01/07 10:09:42;;;;;;;;;;;;;;;4.29;81.96;98849.00;5085577;28;19912;-75
2024/01/07 10:12:08;;;;;;;;;;;;;;;4.53;81.32;98845.47;5087660;28;19912;-75
2024/01/07 10:14:33;;;;;;;;;;;;;;;5.05;80.82;98985.91;5087380;28;20003;-75
2024/01/07 10:16:59;;;;;;;;;;;;;;;5.50;79.37;98955.31;5069804;28;19981;-76
2024/01/07 10:19:24;;;;;;;;;;;;;;;5.69;77.68;98826.97;5087684;28;19912;-75
2024/01/07 10:21:59;;;;;;;;;;;;;;;5.77;77.97;98913.44;5087211;28;19916;-75
2024/01/07 10:24:25;;;;;;;;;;;;;;;5.46;77.12;98795.19;5052497;28;19918;-76
2024/01/07 10:26:50;;;;;;;;;;;;;;;4.97;76.82;98650.06;5062339;28;19916;-75
2024/01/07 10:29:15;;;;;;;;;;;;;;;4.37;76.89;98582.13;5063449;28;19920;-74
2024/01/07 10:31:41;;;;;;;;;;;;;;;5.22;78.16;99012.31;5062741;28;19916;-75
2024/01/07 10:34:09;;;;;;;;;;;;;;;5.65;77.40;99094.91;5062344;28;19958;-75
2024/01/07 10:36:37;;;;;;;;;;;;;;;5.47;76.23;98864.84;5064245;28;19916;-76
2024/01/07 10:39:03;;;;;;;;;;;;;;;5.11;76.01;98756.94;5086702;28;19912;-75
2024/01/07 10:41:30;;;;;;;;;;;;;;;4.42;76.54;98712.72;5086814;28;20401;-75
2024/01/07 10:43:55;;;;;;;;;;;;;;;4.93;76.17;98915.88;5067040;28;19918;-76
2024/01/07 10:46:20;;;;;;;;;;;;;;;4.03;75.47;98535.78;5063411;28;19919;-75
2024/01/07 10:48:58;;;;;;;;;;;;;;;3.77;77.58;98961.06;5051500;28;19944;-74
2024/01/07 10:51:24;;;;;;;;;;;;;;;4.41;76.85;99075.69;5058821;28;20330;-76
2024/01/07 10:53:53;;;;;;;;;;;;;;;4.07;75.61;98772.09;5051724;28;19908;-76
2024/01/07 10:56:22;;;;;;;;;;;;;;;4.73;75.45;98991.28;5061945;28;19985;-76
2024/01/07 10:58:48;;;;;;;;;;;;;;;3.90;73.60;98475.63;5050340;28;19916;-76
2024/01/07 11:01:13;;;;;;;;;;;;;;;4.52;74.18;98827.94;5068680;28;20366;-76
2024/01/07 11:03:55;;;;;;;;;;;;;;;4.40;73.01;98624.03;5067943;28;20294;-76
2024/01/07 11:06:26;;;;;;;;;;;;;;;4.47;73.22;98772.94;5081757;28;19918;-77
2024/01/07 11:08:57;;;;;;;;;;;;;;;5.05;72.62;98880.09;5068977;28;20386;-77
2024/01/07 11:11:25;;;;;;;;;;;;;;;4.65;71.81;98659.88;5052355;28;19916;-77
2024/01/07 11:13:51;;;;;;;;;;;;;;;3.99;70.50;98254.63;5051851;28;20255;-76
2024/01/07 11:16:36;;;;;;;;;;;;;;;3.73;71.22;98342.16;5069304;28;20455;-77
2024/01/07 11:19:02;;;;;;;;;;;;;;;3.99;71.69;98537.13;5042800;28;19919;-76
2024/01/07 11:21:27;;;;;;;;;;;;;;;3.40;70.47;98213.13;5052479;28;19961;-76
2024/01/07 11:23:53;;;;;;;;;;;;;;;3.48;71.46;98450.47;5051543;28;19916;-77
2024/01/07 11:26:18;;;;;;;;;;;;;;;3.36;71.68;98505.44;5052364;28;19947;-77
2024/01/07 11:28:56;;;;;;;;;;;;;;;3.50;71.08;98468.78;5069046;28;20383;-76
2024/01/07 11:31:42;;;;;;;;;;;;;;;3.33;70.28;98342.25;5064217;28;19918;-78
2024/01/07 11:34:07;;;;;;;;;;;;;;;2.49;69.44;97954.03;5079302;28;19919;-77
2024/01/07 11:36:35;;;;;;;;;;;;;;;2.86;69.80;98221.13;5068509;28;19908;-77
2024/01/07 11:39:02;;;;;;;;;;;;;;;3.32;68.94;98266.75;5069030;28;19912;-78
2024/01/07 11:41:28;;;;;;;;;;;;;;;2.92;68.11;98025.38;5048592;28;19954;-77
2024/01/07 11:44:01;;;;;;;;;;;;;;;2.99;68.43;98141.47;5067984;28;19916;-77
2024/01/07 11:46:28;;;;;;;;;;;;;;;3.27;68.35;98253.28;5068448;28;20387;-77
2024/01/07 11:48:57;;;;;;;;;;;;;;;2.91;69.90;98383.03;5086031;28;19957;-77
2024/01/07 11:51:23;;;;;;;;;;;;;;;2.68;70.63;98403.19;5068193;28;20014;-77
2024/01/07 11:53:49;;;;;;;;;;;;;;;2.48;71.23;98448.34;5067413;28;19912;-77
2024/01/07 11:56:14;;;;;;;;;;;;;;;2.74;70.91;98494.75;5068217;28;19912;-77
2024/01/07 11:58:42;;;;;;;;;;;;;;;3.69;71.18;98874.75;5060010;28;20000;-77
2024/01/07 12:01:08;;;;;;;;;;;;;;;3.70;70.67;98797.25;5068156;28;19912;-76
2024/01/07 12:03:33;;;;;;;;;;;;;;;3.27;70.84;98653.31;5067783;28;20386;-77
2024/01/07 12:05:59;;;;;;;;;;;;;;;3.33;69.79;98511.06;5051511;28;19912;-77
2024/01/07 12:11:07;;;;;;;5.65;1.65;;;;;;;2.92;71.82;98703.59;5159216;27;20391;-76
2024/01/07 12:13:33;;;;;;;4.10;1.77;;;;;;;3.08;72.79;98910.25;5165448;27;20465;-76
2024/01/07 12:15:59;;;;;;;8.38;2.92;;;;;;;2.86;71.28;98603.28;5148990;27;20094;-77
2024/01/07 12:18:25;;;;;;;7.65;2.70;;;;;;;2.79;71.91;98676.09;5164251;27;20038;-77
2024/01/07 12:20:59;;;;;;;2.70;1.73;;;;;;;2.77;72.22;98741.31;5138323;27;20030;-77
2024/01/07 12:23:28;;;;;;;2.58;1.60;;;;;;;2.55;73.79;98906.84;5163549;27;20034;-77
2024/01/07 12:25:54;;;;;;;2.50;1.50;;;;;;;3.14;72.39;98954.47;5154546;27;20046;-77
2024/01/07 12:28:19;;;;;;;2.75;1.50;;;;;;;2.91;72.13;98810.03;5164394;27;20037;-77
2024/01/07 12:30:48;;;;;;;2.70;1.30;;;;;;;3.55;72.23;99054.84;5146098;27;20110;-77
2024/01/07 12:33:20;;;;;;;2.97;1.55;;;;;;;3.22;71.29;98729.47;5152941;27;20416;-77
2024/01/07 12:35:46;;;;;;;4.45;1.33;;;;;;;3.25;72.18;98919.84;5154253;27;20058;-77